sensor_id;sensor_type;location;lat;lon;timestamp;P1;durP1;ratioP1;P2;durP2;ratioP2
9306;SDS011;4691;47.612;7.610;2022-12-07T00:01:09;40.33;;;19.38;;
9306;SDS011;4691;47.612;7.610;2022-12-07T00:03:35;45.65;;;21.13;;
9306;SDS011;4691;47.612;7.610;2022-12-07T00:06:01;36.25;;;18.65;;
9306;SDS011;4691;47.612;7.610;2022-12-07T00:08:28;36.13;;;18.42;;
9306;SDS011;4691;47.612;7.610;2022-12-07T00:10:54;40.67;;;19.55;;
9306;SDS011;4691;47.612;7.610;2022-12-07T00:13:19;38.03;;;19.02;;
9306;SDS011;4691;47.612;7.610;2022-12-07T00:15:45;46.35;;;20.88;;
9306;SDS011;4691;47.612;7.610;2022-12-07T00:18:13;43.08;;;20.58;;
9306;SDS011;4691;47.612;7.610;2022-12-07T00:20:38;43.63;;;21.02;;
9306;SDS011;4691;47.612;7.610;2022-12-07T00:23:03;40.22;;;19.13;;
9306;SDS011;4691;47.612;7.610;2022-12-07T00:25:29;43.17;;;21.38;;
9306;SDS011;4691;47.612;7.610;2022-12-07T00:27:55;47.08;;;21.10;;
9306;SDS011;4691;47.612;7.610;2022-12-07T00:30:23;46.30;;;20.50;;
9306;SDS011;4691;47.612;7.610;2022-12-07T00:32:48;44.97;;;20.77;;
9306;SDS011;4691;47.612;7.610;2022-12-07T00:35:14;45.05;;;20.30;;
9306;SDS011;4691;47.612;7.610;2022-12-07T00:37:40;48.83;;;22.45;;
9306;SDS011;4691;47.612;7.610;2022-12-07T00:40:05;40.80;;;19.83;;
9306;SDS011;4691;47.612;7.610;2022-12-07T00:42:31;46.83;;;21.30;;
9306;SDS011;4691;47.612;7.610;2022-12-07T00:44:57;41.00;;;19.88;;
9306;SDS011;4691;47.612;7.610;2022-12-07T00:47:22;42.20;;;21.20;;
9306;SDS011;4691;47.612;7.610;2022-12-07T00:49:47;39.72;;;19.92;;
9306;SDS011;4691;47.612;7.610;2022-12-07T00:52:13;44.65;;;20.15;;
9306;SDS011;4691;47.612;7.610;2022-12-07T00:54:38;43.40;;;20.25;;
9306;SDS011;4691;47.612;7.610;2022-12-07T00:57:04;48.15;;;22.95;;
9306;SDS011;4691;47.612;7.610;2022-12-07T00:59:30;44.47;;;21.88;;
9306;SDS011;4691;47.612;7.610;2022-12-07T01:01:55;51.05;;;22.48;;
9306;SDS011;4691;47.612;7.610;2022-12-07T01:04:20;44.50;;;20.95;;
9306;SDS011;4691;47.612;7.610;2022-12-07T01:06:46;48.40;;;21.55;;
9306;SDS011;4691;47.612;7.610;2022-12-07T01:09:11;52.30;;;22.30;;
9306;SDS011;4691;47.612;7.610;2022-12-07T01:11:36;42.55;;;20.02;;
9306;SDS011;4691;47.612;7.610;2022-12-07T01:14:02;43.75;;;20.17;;
9306;SDS011;4691;47.612;7.610;2022-12-07T01:16:28;43.78;;;20.55;;
9306;SDS011;4691;47.612;7.610;2022-12-07T01:18:55;49.53;;;22.98;;
9306;SDS011;4691;47.612;7.610;2022-12-07T01:23:48;49.20;;;21.30;;
9306;SDS011;4691;47.612;7.610;2022-12-07T01:26:15;55.90;;;23.75;;
9306;SDS011;4691;47.612;7.610;2022-12-07T01:28:42;49.03;;;22.35;;
9306;SDS011;4691;47.612;7.610;2022-12-07T01:31:09;52.47;;;22.02;;
9306;SDS011;4691;47.612;7.610;2022-12-07T01:33:36;58.30;;;22.55;;
9306;SDS011;4691;47.612;7.610;2022-12-07T01:36:03;50.78;;;20.92;;
9306;SDS011;4691;47.612;7.610;2022-12-07T01:38:30;47.28;;;21.90;;
9306;SDS011;4691;47.612;7.610;2022-12-07T01:40:57;46.47;;;21.38;;
9306;SDS011;4691;47.612;7.610;2022-12-07T01:43:24;47.42;;;22.02;;
9306;SDS011;4691;47.612;7.610;2022-12-07T01:45:51;50.65;;;22.33;;
9306;SDS011;4691;47.612;7.610;2022-12-07T01:48:18;49.33;;;21.92;;
9306;SDS011;4691;47.612;7.610;2022-12-07T01:50:47;48.10;;;22.70;;
9306;SDS011;4691;47.612;7.610;2022-12-07T01:53:15;61.53;;;24.25;;
9306;SDS011;4691;47.612;7.610;2022-12-07T01:55:44;59.65;;;24.33;;
9306;SDS011;4691;47.612;7.610;2022-12-07T01:58:14;57.70;;;24.42;;
9306;SDS011;4691;47.612;7.610;2022-12-07T02:00:41;62.08;;;26.65;;
9306;SDS011;4691;47.612;7.610;2022-12-07T02:03:14;61.35;;;25.23;;
9306;SDS011;4691;47.612;7.610;2022-12-07T02:05:44;66.13;;;26.13;;
9306;SDS011;4691;47.612;7.610;2022-12-07T02:08:12;58.85;;;24.83;;
9306;SDS011;4691;47.612;7.610;2022-12-07T02:10:38;63.47;;;25.67;;
9306;SDS011;4691;47.612;7.610;2022-12-07T02:13:22;60.85;;;26.45;;
9306;SDS011;4691;47.612;7.610;2022-12-07T02:15:59;64.03;;;25.75;;
9306;SDS011;4691;47.612;7.610;2022-12-07T02:18:35;59.38;;;24.77;;
9306;SDS011;4691;47.612;7.610;2022-12-07T02:29:45;59.45;;;24.00;;
9306;SDS011;4691;47.612;7.610;2022-12-07T02:35:06;55.42;;;24.55;;
9306;SDS011;4691;47.612;7.610;2022-12-07T02:43:09;60.47;;;22.80;;
9306;SDS011;4691;47.612;7.610;2022-12-07T02:45:44;60.03;;;24.80;;
9306;SDS011;4691;47.612;7.610;2022-12-07T02:48:12;66.20;;;28.10;;
9306;SDS011;4691;47.612;7.610;2022-12-07T02:50:43;59.15;;;25.48;;
9306;SDS011;4691;47.612;7.610;2022-12-07T02:55:56;67.15;;;26.48;;
9306;SDS011;4691;47.612;7.610;2022-12-07T03:03:41;74.20;;;28.63;;
9306;SDS011;4691;47.612;7.610;2022-12-07T03:06:16;65.65;;;27.27;;
9306;SDS011;4691;47.612;7.610;2022-12-07T03:08:51;62.40;;;25.88;;
9306;SDS011;4691;47.612;7.610;2022-12-07T03:11:22;74.40;;;28.05;;
9306;SDS011;4691;47.612;7.610;2022-12-07T03:14:02;60.95;;;26.13;;
9306;SDS011;4691;47.612;7.610;2022-12-07T03:19:44;68.32;;;26.30;;
9306;SDS011;4691;47.612;7.610;2022-12-07T03:22:13;66.00;;;27.10;;
9306;SDS011;4691;47.612;7.610;2022-12-07T03:24:41;68.55;;;27.85;;
9306;SDS011;4691;47.612;7.610;2022-12-07T03:27:34;68.10;;;27.23;;
9306;SDS011;4691;47.612;7.610;2022-12-07T03:30:00;68.20;;;28.17;;
9306;SDS011;4691;47.612;7.610;2022-12-07T03:32:31;66.32;;;27.23;;
9306;SDS011;4691;47.612;7.610;2022-12-07T03:35:07;69.32;;;28.58;;
9306;SDS011;4691;47.612;7.610;2022-12-07T03:37:37;73.45;;;29.35;;
9306;SDS011;4691;47.612;7.610;2022-12-07T03:42:55;63.67;;;26.25;;
9306;SDS011;4691;47.612;7.610;2022-12-07T03:45:25;68.70;;;27.57;;
9306;SDS011;4691;47.612;7.610;2022-12-07T03:50:58;75.15;;;28.80;;
9306;SDS011;4691;47.612;7.610;2022-12-07T03:53:36;69.78;;;28.05;;
9306;SDS011;4691;47.612;7.610;2022-12-07T03:56:13;72.03;;;29.40;;
9306;SDS011;4691;47.612;7.610;2022-12-07T03:58:39;75.20;;;29.88;;
9306;SDS011;4691;47.612;7.610;2022-12-07T04:01:05;79.90;;;28.77;;
9306;SDS011;4691;47.612;7.610;2022-12-07T04:03:31;71.88;;;28.48;;
9306;SDS011;4691;47.612;7.610;2022-12-07T04:05:56;62.15;;;25.42;;
9306;SDS011;4691;47.612;7.610;2022-12-07T04:08:23;64.50;;;25.55;;
9306;SDS011;4691;47.612;7.610;2022-12-07T04:10:49;71.38;;;28.75;;
9306;SDS011;4691;47.612;7.610;2022-12-07T04:13:14;65.97;;;25.27;;
9306;SDS011;4691;47.612;7.610;2022-12-07T04:15:40;61.97;;;24.65;;
9306;SDS011;4691;47.612;7.610;2022-12-07T04:18:05;57.05;;;22.88;;
9306;SDS011;4691;47.612;7.610;2022-12-07T04:20:30;51.22;;;20.77;;
9306;SDS011;4691;47.612;7.610;2022-12-07T04:22:56;51.80;;;20.42;;
9306;SDS011;4691;47.612;7.610;2022-12-07T04:25:21;38.75;;;16.38;;
9306;SDS011;4691;47.612;7.610;2022-12-07T04:27:47;35.45;;;15.88;;
9306;SDS011;4691;47.612;7.610;2022-12-07T04:30:12;39.88;;;17.88;;
9306;SDS011;4691;47.612;7.610;2022-12-07T04:32:37;35.85;;;15.45;;
9306;SDS011;4691;47.612;7.610;2022-12-07T04:35:03;42.90;;;18.10;;
9306;SDS011;4691;47.612;7.610;2022-12-07T04:37:29;34.42;;;16.20;;
9306;SDS011;4691;47.612;7.610;2022-12-07T04:39:54;40.65;;;15.27;;
9306;SDS011;4691;47.612;7.610;2022-12-07T04:42:19;36.28;;;16.35;;
9306;SDS011;4691;47.612;7.610;2022-12-07T04:44:45;38.92;;;14.93;;
9306;SDS011;4691;47.612;7.610;2022-12-07T04:47:10;33.17;;;14.35;;
9306;SDS011;4691;47.612;7.610;2022-12-07T04:49:35;26.55;;;12.90;;
9306;SDS011;4691;47.612;7.610;2022-12-07T04:52:01;27.77;;;12.38;;
9306;SDS011;4691;47.612;7.610;2022-12-07T04:54:26;28.67;;;13.02;;
9306;SDS011;4691;47.612;7.610;2022-12-07T04:56:51;24.48;;;11.50;;
9306;SDS011;4691;47.612;7.610;2022-12-07T04:59:17;24.60;;;11.55;;
9306;SDS011;4691;47.612;7.610;2022-12-07T05:01:43;21.35;;;10.82;;
9306;SDS011;4691;47.612;7.610;2022-12-07T05:04:09;23.55;;;11.25;;
9306;SDS011;4691;47.612;7.610;2022-12-07T05:06:35;23.90;;;12.45;;
9306;SDS011;4691;47.612;7.610;2022-12-07T05:09:00;30.85;;;11.10;;
9306;SDS011;4691;47.612;7.610;2022-12-07T05:11:27;29.70;;;12.40;;
9306;SDS011;4691;47.612;7.610;2022-12-07T05:14:06;33.63;;;14.80;;
9306;SDS011;4691;47.612;7.610;2022-12-07T05:16:42;44.65;;;20.75;;
9306;SDS011;4691;47.612;7.610;2022-12-07T05:19:09;52.42;;;26.25;;
9306;SDS011;4691;47.612;7.610;2022-12-07T05:21:35;55.22;;;26.65;;
9306;SDS011;4691;47.612;7.610;2022-12-07T05:24:01;39.70;;;20.15;;
9306;SDS011;4691;47.612;7.610;2022-12-07T05:26:27;34.25;;;16.70;;
9306;SDS011;4691;47.612;7.610;2022-12-07T05:28:54;35.97;;;17.70;;
9306;SDS011;4691;47.612;7.610;2022-12-07T05:31:21;31.55;;;15.48;;
9306;SDS011;4691;47.612;7.610;2022-12-07T05:33:47;25.75;;;11.35;;
9306;SDS011;4691;47.612;7.610;2022-12-07T05:36:12;30.23;;;13.27;;
9306;SDS011;4691;47.612;7.610;2022-12-07T05:38:38;27.08;;;12.00;;
9306;SDS011;4691;47.612;7.610;2022-12-07T05:41:04;53.95;;;29.38;;
9306;SDS011;4691;47.612;7.610;2022-12-07T05:43:30;37.10;;;18.60;;
9306;SDS011;4691;47.612;7.610;2022-12-07T05:45:56;28.38;;;13.00;;
9306;SDS011;4691;47.612;7.610;2022-12-07T05:48:22;28.88;;;14.93;;
9306;SDS011;4691;47.612;7.610;2022-12-07T05:50:48;39.53;;;21.27;;
9306;SDS011;4691;47.612;7.610;2022-12-07T05:53:14;32.35;;;15.95;;
9306;SDS011;4691;47.612;7.610;2022-12-07T05:55:39;29.80;;;15.52;;
9306;SDS011;4691;47.612;7.610;2022-12-07T05:58:05;29.30;;;13.70;;
9306;SDS011;4691;47.612;7.610;2022-12-07T06:00:49;31.73;;;14.45;;
9306;SDS011;4691;47.612;7.610;2022-12-07T06:03:14;35.63;;;16.20;;
9306;SDS011;4691;47.612;7.610;2022-12-07T06:05:40;40.42;;;17.65;;
9306;SDS011;4691;47.612;7.610;2022-12-07T06:08:06;38.88;;;17.92;;
9306;SDS011;4691;47.612;7.610;2022-12-07T06:10:32;39.08;;;17.50;;
9306;SDS011;4691;47.612;7.610;2022-12-07T06:12:57;47.63;;;19.15;;
9306;SDS011;4691;47.612;7.610;2022-12-07T06:15:22;39.83;;;16.65;;
9306;SDS011;4691;47.612;7.610;2022-12-07T06:17:48;40.78;;;17.33;;
9306;SDS011;4691;47.612;7.610;2022-12-07T06:20:13;38.72;;;16.63;;
9306;SDS011;4691;47.612;7.610;2022-12-07T06:22:39;47.97;;;18.25;;
9306;SDS011;4691;47.612;7.610;2022-12-07T06:25:04;49.70;;;21.45;;
9306;SDS011;4691;47.612;7.610;2022-12-07T06:27:30;47.63;;;20.52;;
9306;SDS011;4691;47.612;7.610;2022-12-07T06:29:57;43.00;;;18.75;;
9306;SDS011;4691;47.612;7.610;2022-12-07T06:32:23;48.17;;;19.42;;
9306;SDS011;4691;47.612;7.610;2022-12-07T06:34:48;46.22;;;18.75;;
9306;SDS011;4691;47.612;7.610;2022-12-07T06:37:13;48.90;;;21.67;;
9306;SDS011;4691;47.612;7.610;2022-12-07T06:39:39;48.50;;;19.65;;
9306;SDS011;4691;47.612;7.610;2022-12-07T06:42:04;46.88;;;18.85;;
9306;SDS011;4691;47.612;7.610;2022-12-07T06:44:29;45.45;;;19.48;;
9306;SDS011;4691;47.612;7.610;2022-12-07T06:46:55;52.58;;;20.90;;
9306;SDS011;4691;47.612;7.610;2022-12-07T06:49:21;48.30;;;19.40;;
9306;SDS011;4691;47.612;7.610;2022-12-07T06:51:46;47.67;;;20.80;;
9306;SDS011;4691;47.612;7.610;2022-12-07T06:54:12;57.50;;;22.25;;
9306;SDS011;4691;47.612;7.610;2022-12-07T06:56:39;55.55;;;21.50;;
9306;SDS011;4691;47.612;7.610;2022-12-07T06:59:05;56.17;;;22.85;;
9306;SDS011;4691;47.612;7.610;2022-12-07T07:01:31;54.25;;;20.85;;
9306;SDS011;4691;47.612;7.610;2022-12-07T07:03:57;64.55;;;24.33;;
9306;SDS011;4691;47.612;7.610;2022-12-07T07:06:23;57.15;;;22.38;;
9306;SDS011;4691;47.612;7.610;2022-12-07T07:08:48;51.80;;;21.77;;
9306;SDS011;4691;47.612;7.610;2022-12-07T07:11:14;57.72;;;24.48;;
9306;SDS011;4691;47.612;7.610;2022-12-07T07:13:39;55.08;;;22.55;;
9306;SDS011;4691;47.612;7.610;2022-12-07T07:16:05;55.15;;;23.67;;
9306;SDS011;4691;47.612;7.610;2022-12-07T07:18:31;55.83;;;24.05;;
9306;SDS011;4691;47.612;7.610;2022-12-07T07:20:56;54.63;;;22.33;;
9306;SDS011;4691;47.612;7.610;2022-12-07T07:23:22;47.03;;;20.77;;
9306;SDS011;4691;47.612;7.610;2022-12-07T07:25:48;48.22;;;20.67;;
9306;SDS011;4691;47.612;7.610;2022-12-07T07:28:14;51.80;;;22.15;;
9306;SDS011;4691;47.612;7.610;2022-12-07T07:30:40;51.30;;;22.52;;
9306;SDS011;4691;47.612;7.610;2022-12-07T07:33:05;65.05;;;26.80;;
9306;SDS011;4691;47.612;7.610;2022-12-07T07:35:31;52.70;;;24.42;;
9306;SDS011;4691;47.612;7.610;2022-12-07T07:37:58;55.58;;;24.33;;
9306;SDS011;4691;47.612;7.610;2022-12-07T07:40:24;55.05;;;23.15;;
9306;SDS011;4691;47.612;7.610;2022-12-07T07:42:58;63.60;;;25.20;;
9306;SDS011;4691;47.612;7.610;2022-12-07T07:45:24;57.72;;;25.17;;
9306;SDS011;4691;47.612;7.610;2022-12-07T07:47:51;67.43;;;25.83;;
9306;SDS011;4691;47.612;7.610;2022-12-07T07:50:16;71.95;;;29.00;;
9306;SDS011;4691;47.612;7.610;2022-12-07T07:52:42;62.17;;;26.63;;
9306;SDS011;4691;47.612;7.610;2022-12-07T07:55:08;58.13;;;25.15;;
9306;SDS011;4691;47.612;7.610;2022-12-07T07:57:34;58.00;;;24.92;;
9306;SDS011;4691;47.612;7.610;2022-12-07T08:00:01;51.58;;;22.98;;
9306;SDS011;4691;47.612;7.610;2022-12-07T08:02:30;53.58;;;24.45;;
9306;SDS011;4691;47.612;7.610;2022-12-07T08:04:56;52.08;;;24.27;;
9306;SDS011;4691;47.612;7.610;2022-12-07T08:07:21;63.88;;;28.65;;
9306;SDS011;4691;47.612;7.610;2022-12-07T08:09:47;72.60;;;34.53;;
9306;SDS011;4691;47.612;7.610;2022-12-07T08:12:12;67.32;;;30.77;;
9306;SDS011;4691;47.612;7.610;2022-12-07T08:14:40;67.53;;;29.00;;
9306;SDS011;4691;47.612;7.610;2022-12-07T08:17:06;82.45;;;31.42;;
9306;SDS011;4691;47.612;7.610;2022-12-07T08:19:31;64.70;;;25.67;;
9306;SDS011;4691;47.612;7.610;2022-12-07T08:21:58;57.38;;;24.05;;
9306;SDS011;4691;47.612;7.610;2022-12-07T08:24:23;53.78;;;21.77;;
9306;SDS011;4691;47.612;7.610;2022-12-07T08:26:49;56.85;;;24.40;;
9306;SDS011;4691;47.612;7.610;2022-12-07T08:29:15;52.00;;;21.02;;
9306;SDS011;4691;47.612;7.610;2022-12-07T08:31:40;48.67;;;20.35;;
9306;SDS011;4691;47.612;7.610;2022-12-07T08:34:06;51.53;;;21.17;;
9306;SDS011;4691;47.612;7.610;2022-12-07T08:36:31;51.03;;;21.08;;
9306;SDS011;4691;47.612;7.610;2022-12-07T08:38:56;41.30;;;18.63;;
9306;SDS011;4691;47.612;7.610;2022-12-07T08:41:22;54.22;;;22.80;;
9306;SDS011;4691;47.612;7.610;2022-12-07T08:43:47;51.05;;;22.65;;
9306;SDS011;4691;47.612;7.610;2022-12-07T08:46:19;52.20;;;21.90;;
9306;SDS011;4691;47.612;7.610;2022-12-07T08:48:54;57.50;;;24.05;;
9306;SDS011;4691;47.612;7.610;2022-12-07T08:51:23;55.13;;;22.88;;
9306;SDS011;4691;47.612;7.610;2022-12-07T08:53:49;56.78;;;23.70;;
9306;SDS011;4691;47.612;7.610;2022-12-07T08:56:17;54.92;;;23.30;;
9306;SDS011;4691;47.612;7.610;2022-12-07T08:58:42;62.50;;;24.92;;
9306;SDS011;4691;47.612;7.610;2022-12-07T09:01:08;53.33;;;20.85;;
9306;SDS011;4691;47.612;7.610;2022-12-07T09:03:34;53.70;;;22.55;;
9306;SDS011;4691;47.612;7.610;2022-12-07T09:05:59;55.33;;;21.58;;
9306;SDS011;4691;47.612;7.610;2022-12-07T09:08:26;54.42;;;22.02;;
9306;SDS011;4691;47.612;7.610;2022-12-07T09:10:58;59.38;;;25.58;;
9306;SDS011;4691;47.612;7.610;2022-12-07T09:13:24;56.97;;;22.10;;
9306;SDS011;4691;47.612;7.610;2022-12-07T09:15:49;53.63;;;22.30;;
9306;SDS011;4691;47.612;7.610;2022-12-07T09:18:15;55.22;;;23.55;;
9306;SDS011;4691;47.612;7.610;2022-12-07T09:20:40;64.00;;;25.58;;
9306;SDS011;4691;47.612;7.610;2022-12-07T09:23:06;58.47;;;24.45;;
9306;SDS011;4691;47.612;7.610;2022-12-07T09:25:32;61.33;;;24.48;;
9306;SDS011;4691;47.612;7.610;2022-12-07T09:27:58;48.53;;;21.60;;
9306;SDS011;4691;47.612;7.610;2022-12-07T09:30:24;53.13;;;20.95;;
9306;SDS011;4691;47.612;7.610;2022-12-07T09:32:51;59.72;;;23.30;;
9306;SDS011;4691;47.612;7.610;2022-12-07T09:35:18;45.33;;;19.45;;
9306;SDS011;4691;47.612;7.610;2022-12-07T09:37:43;46.20;;;19.88;;
9306;SDS011;4691;47.612;7.610;2022-12-07T09:40:08;43.53;;;19.60;;
9306;SDS011;4691;47.612;7.610;2022-12-07T09:42:37;48.08;;;21.63;;
9306;SDS011;4691;47.612;7.610;2022-12-07T09:45:07;49.65;;;21.55;;
9306;SDS011;4691;47.612;7.610;2022-12-07T09:47:37;43.75;;;19.73;;
9306;SDS011;4691;47.612;7.610;2022-12-07T09:50:06;50.97;;;21.92;;
9306;SDS011;4691;47.612;7.610;2022-12-07T09:52:37;47.83;;;20.20;;
9306;SDS011;4691;47.612;7.610;2022-12-07T09:55:03;43.35;;;19.52;;
9306;SDS011;4691;47.612;7.610;2022-12-07T09:57:30;43.08;;;19.00;;
9306;SDS011;4691;47.612;7.610;2022-12-07T09:59:59;49.67;;;23.05;;
9306;SDS011;4691;47.612;7.610;2022-12-07T10:02:48;42.83;;;20.13;;
9306;SDS011;4691;47.612;7.610;2022-12-07T10:05:22;46.70;;;21.63;;
9306;SDS011;4691;47.612;7.610;2022-12-07T10:07:52;39.50;;;20.98;;
9306;SDS011;4691;47.612;7.610;2022-12-07T10:10:20;36.00;;;19.05;;
9306;SDS011;4691;47.612;7.610;2022-12-07T10:12:53;38.22;;;19.27;;
9306;SDS011;4691;47.612;7.610;2022-12-07T10:15:19;35.72;;;17.45;;
9306;SDS011;4691;47.612;7.610;2022-12-07T10:17:48;35.83;;;18.10;;
9306;SDS011;4691;47.612;7.610;2022-12-07T10:20:19;37.10;;;19.02;;
9306;SDS011;4691;47.612;7.610;2022-12-07T10:23:07;32.38;;;16.45;;
9306;SDS011;4691;47.612;7.610;2022-12-07T10:25:39;34.65;;;17.58;;
9306;SDS011;4691;47.612;7.610;2022-12-07T10:30:56;33.33;;;17.13;;
9306;SDS011;4691;47.612;7.610;2022-12-07T10:33:38;34.10;;;16.63;;
9306;SDS011;4691;47.612;7.610;2022-12-07T10:36:34;30.42;;;16.10;;
9306;SDS011;4691;47.612;7.610;2022-12-07T10:39:15;33.33;;;16.60;;
9306;SDS011;4691;47.612;7.610;2022-12-07T10:41:53;35.63;;;18.17;;
9306;SDS011;4691;47.612;7.610;2022-12-07T10:44:23;32.55;;;15.77;;
9306;SDS011;4691;47.612;7.610;2022-12-07T11:03:05;36.33;;;16.58;;
9306;SDS011;4691;47.612;7.610;2022-12-07T11:14:36;34.42;;;18.45;;
9306;SDS011;4691;47.612;7.610;2022-12-07T11:17:46;32.00;;;17.70;;
9306;SDS011;4691;47.612;7.610;2022-12-07T11:20:53;37.22;;;20.77;;
9306;SDS011;4691;47.612;7.610;2022-12-07T11:23:44;38.60;;;19.73;;
9306;SDS011;4691;47.612;7.610;2022-12-07T11:31:33;39.72;;;19.98;;
9306;SDS011;4691;47.612;7.610;2022-12-07T11:34:08;39.28;;;19.35;;
9306;SDS011;4691;47.612;7.610;2022-12-07T11:36:46;36.92;;;19.10;;
9306;SDS011;4691;47.612;7.610;2022-12-07T11:41:43;38.67;;;18.30;;
9306;SDS011;4691;47.612;7.610;2022-12-07T11:47:10;33.40;;;17.00;;
9306;SDS011;4691;47.612;7.610;2022-12-07T11:49:53;35.15;;;17.50;;
9306;SDS011;4691;47.612;7.610;2022-12-07T11:52:27;43.75;;;21.50;;
9306;SDS011;4691;47.612;7.610;2022-12-07T11:55:01;39.85;;;19.85;;
9306;SDS011;4691;47.612;7.610;2022-12-07T11:57:35;30.83;;;17.08;;
9306;SDS011;4691;47.612;7.610;2022-12-07T12:00:12;37.63;;;18.65;;
9306;SDS011;4691;47.612;7.610;2022-12-07T12:07:43;42.33;;;20.52;;
9306;SDS011;4691;47.612;7.610;2022-12-07T12:20:45;43.80;;;20.77;;
9306;SDS011;4691;47.612;7.610;2022-12-07T12:23:16;42.40;;;21.55;;
9306;SDS011;4691;47.612;7.610;2022-12-07T12:25:49;40.20;;;20.75;;
9306;SDS011;4691;47.612;7.610;2022-12-07T12:28:23;44.63;;;21.50;;
9306;SDS011;4691;47.612;7.610;2022-12-07T12:34:00;42.03;;;20.38;;
9306;SDS011;4691;47.612;7.610;2022-12-07T12:39:18;36.35;;;18.48;;
9306;SDS011;4691;47.612;7.610;2022-12-07T12:46:53;41.50;;;20.52;;
9306;SDS011;4691;47.612;7.610;2022-12-07T12:51:49;37.35;;;19.08;;
9306;SDS011;4691;47.612;7.610;2022-12-07T12:59:32;46.60;;;23.08;;
9306;SDS011;4691;47.612;7.610;2022-12-07T13:02:21;35.15;;;18.42;;
9306;SDS011;4691;47.612;7.610;2022-12-07T13:04:59;38.63;;;18.13;;
9306;SDS011;4691;47.612;7.610;2022-12-07T13:07:49;36.38;;;18.33;;
9306;SDS011;4691;47.612;7.610;2022-12-07T13:15:36;37.35;;;18.67;;
9306;SDS011;4691;47.612;7.610;2022-12-07T13:20:42;37.22;;;17.58;;
9306;SDS011;4691;47.612;7.610;2022-12-07T13:23:10;33.28;;;17.10;;
9306;SDS011;4691;47.612;7.610;2022-12-07T13:25:48;34.20;;;17.27;;
9306;SDS011;4691;47.612;7.610;2022-12-07T13:28:19;30.05;;;16.27;;
9306;SDS011;4691;47.612;7.610;2022-12-07T13:30:50;39.35;;;17.95;;
9306;SDS011;4691;47.612;7.610;2022-12-07T13:33:25;35.17;;;17.50;;
9306;SDS011;4691;47.612;7.610;2022-12-07T13:35:54;38.05;;;17.48;;
9306;SDS011;4691;47.612;7.610;2022-12-07T13:38:29;36.38;;;17.15;;
9306;SDS011;4691;47.612;7.610;2022-12-07T13:41:30;35.90;;;15.80;;
9306;SDS011;4691;47.612;7.610;2022-12-07T13:46:26;27.38;;;13.70;;
9306;SDS011;4691;47.612;7.610;2022-12-07T13:48:59;24.75;;;13.23;;
9306;SDS011;4691;47.612;7.610;2022-12-07T13:51:25;25.35;;;13.40;;
9306;SDS011;4691;47.612;7.610;2022-12-07T13:53:59;23.40;;;12.80;;
9306;SDS011;4691;47.612;7.610;2022-12-07T13:56:28;26.20;;;13.40;;
9306;SDS011;4691;47.612;7.610;2022-12-07T13:58:58;28.15;;;15.63;;
9306;SDS011;4691;47.612;7.610;2022-12-07T14:01:24;24.88;;;13.40;;
9306;SDS011;4691;47.612;7.610;2022-12-07T14:03:50;32.83;;;16.38;;
9306;SDS011;4691;47.612;7.610;2022-12-07T14:06:18;26.65;;;14.40;;
9306;SDS011;4691;47.612;7.610;2022-12-07T14:14:31;26.17;;;14.75;;
9306;SDS011;4691;47.612;7.610;2022-12-07T14:17:02;22.52;;;13.52;;
9306;SDS011;4691;47.612;7.610;2022-12-07T14:19:40;24.10;;;13.65;;
9306;SDS011;4691;47.612;7.610;2022-12-07T14:24:45;21.80;;;13.20;;
9306;SDS011;4691;47.612;7.610;2022-12-07T14:27:16;24.35;;;13.68;;
9306;SDS011;4691;47.612;7.610;2022-12-07T14:29:55;24.15;;;14.00;;
9306;SDS011;4691;47.612;7.610;2022-12-07T14:32:24;23.15;;;14.55;;
9306;SDS011;4691;47.612;7.610;2022-12-07T14:34:55;24.02;;;14.15;;
9306;SDS011;4691;47.612;7.610;2022-12-07T14:37:22;21.15;;;13.07;;
9306;SDS011;4691;47.612;7.610;2022-12-07T14:39:47;21.48;;;13.15;;
9306;SDS011;4691;47.612;7.610;2022-12-07T14:42:12;27.33;;;15.10;;
9306;SDS011;4691;47.612;7.610;2022-12-07T14:44:38;25.83;;;15.38;;
9306;SDS011;4691;47.612;7.610;2022-12-07T14:47:03;24.17;;;13.77;;
9306;SDS011;4691;47.612;7.610;2022-12-07T14:49:28;24.92;;;13.63;;
9306;SDS011;4691;47.612;7.610;2022-12-07T14:51:54;25.20;;;14.38;;
9306;SDS011;4691;47.612;7.610;2022-12-07T14:54:20;26.55;;;14.75;;
9306;SDS011;4691;47.612;7.610;2022-12-07T14:56:49;28.65;;;14.15;;
9306;SDS011;4691;47.612;7.610;2022-12-07T14:59:16;24.73;;;14.18;;
9306;SDS011;4691;47.612;7.610;2022-12-07T15:01:42;22.33;;;12.45;;
9306;SDS011;4691;47.612;7.610;2022-12-07T15:04:07;21.40;;;11.75;;
9306;SDS011;4691;47.612;7.610;2022-12-07T15:06:33;26.60;;;13.60;;
9306;SDS011;4691;47.612;7.610;2022-12-07T15:08:58;24.30;;;13.20;;
9306;SDS011;4691;47.612;7.610;2022-12-07T15:11:23;27.73;;;14.18;;
9306;SDS011;4691;47.612;7.610;2022-12-07T15:13:49;25.38;;;12.50;;
9306;SDS011;4691;47.612;7.610;2022-12-07T15:16:33;20.98;;;11.45;;
9306;SDS011;4691;47.612;7.610;2022-12-07T15:18:59;22.42;;;12.10;;
9306;SDS011;4691;47.612;7.610;2022-12-07T15:21:24;25.80;;;13.48;;
9306;SDS011;4691;47.612;7.610;2022-12-07T15:23:49;24.70;;;13.20;;
9306;SDS011;4691;47.612;7.610;2022-12-07T15:26:14;23.15;;;11.10;;
9306;SDS011;4691;47.612;7.610;2022-12-07T15:28:40;25.67;;;12.45;;
9306;SDS011;4691;47.612;7.610;2022-12-07T15:31:16;23.13;;;11.48;;
9306;SDS011;4691;47.612;7.610;2022-12-07T15:33:42;19.63;;;9.95;;
9306;SDS011;4691;47.612;7.610;2022-12-07T15:36:09;24.58;;;11.07;;
9306;SDS011;4691;47.612;7.610;2022-12-07T15:38:46;24.45;;;11.35;;
9306;SDS011;4691;47.612;7.610;2022-12-07T15:41:11;20.55;;;11.18;;
9306;SDS011;4691;47.612;7.610;2022-12-07T15:43:37;20.52;;;11.15;;
9306;SDS011;4691;47.612;7.610;2022-12-07T15:46:21;25.08;;;10.35;;
9306;SDS011;4691;47.612;7.610;2022-12-07T15:48:46;20.60;;;10.88;;
9306;SDS011;4691;47.612;7.610;2022-12-07T15:51:11;25.20;;;11.45;;
9306;SDS011;4691;47.612;7.610;2022-12-07T15:53:37;26.02;;;12.15;;
9306;SDS011;4691;47.612;7.610;2022-12-07T15:56:05;27.17;;;13.73;;
9306;SDS011;4691;47.612;7.610;2022-12-07T15:58:31;44.55;;;20.80;;
9306;SDS011;4691;47.612;7.610;2022-12-07T16:00:57;24.50;;;12.35;;
9306;SDS011;4691;47.612;7.610;2022-12-07T16:03:22;25.83;;;12.68;;
9306;SDS011;4691;47.612;7.610;2022-12-07T16:05:51;25.58;;;11.43;;
9306;SDS011;4691;47.612;7.610;2022-12-07T16:08:17;21.63;;;11.18;;
9306;SDS011;4691;47.612;7.610;2022-12-07T16:10:42;26.33;;;13.65;;
9306;SDS011;4691;47.612;7.610;2022-12-07T16:13:08;30.80;;;14.13;;
9306;SDS011;4691;47.612;7.610;2022-12-07T16:15:41;30.83;;;14.55;;
9306;SDS011;4691;47.612;7.610;2022-12-07T16:18:06;30.13;;;14.90;;
9306;SDS011;4691;47.612;7.610;2022-12-07T16:20:32;33.08;;;14.23;;
9306;SDS011;4691;47.612;7.610;2022-12-07T16:22:57;28.40;;;13.88;;
9306;SDS011;4691;47.612;7.610;2022-12-07T16:25:23;33.55;;;15.15;;
9306;SDS011;4691;47.612;7.610;2022-12-07T16:27:48;30.90;;;14.38;;
9306;SDS011;4691;47.612;7.610;2022-12-07T16:30:14;30.38;;;15.55;;
9306;SDS011;4691;47.612;7.610;2022-12-07T16:32:41;30.50;;;15.82;;
9306;SDS011;4691;47.612;7.610;2022-12-07T16:35:07;35.72;;;16.67;;
9306;SDS011;4691;47.612;7.610;2022-12-07T16:37:33;36.33;;;18.10;;
9306;SDS011;4691;47.612;7.610;2022-12-07T16:39:58;37.05;;;18.15;;
9306;SDS011;4691;47.612;7.610;2022-12-07T16:42:23;37.28;;;18.73;;
9306;SDS011;4691;47.612;7.610;2022-12-07T16:44:48;48.38;;;20.90;;
9306;SDS011;4691;47.612;7.610;2022-12-07T16:47:14;44.35;;;19.95;;
9306;SDS011;4691;47.612;7.610;2022-12-07T16:49:39;49.67;;;20.90;;
9306;SDS011;4691;47.612;7.610;2022-12-07T16:52:04;46.53;;;20.70;;
9306;SDS011;4691;47.612;7.610;2022-12-07T16:54:30;51.90;;;23.50;;
9306;SDS011;4691;47.612;7.610;2022-12-07T16:56:58;51.70;;;24.00;;
9306;SDS011;4691;47.612;7.610;2022-12-07T16:59:23;48.78;;;23.02;;
9306;SDS011;4691;47.612;7.610;2022-12-07T17:01:49;51.40;;;23.20;;
9306;SDS011;4691;47.612;7.610;2022-12-07T17:04:14;51.38;;;24.67;;